Time;durP1;ratioP1;P1;durP2;ratioP2;P2;SDS_P1;SDS_P2;PMS_P1;PMS_P2;Temp;Humidity;BMP_temperature;BMP_pressure;BME280_temperature;BME280_humidity;BME280_pressure;Samples;Min_cycle;Max_cycle;Signal;HPM_P1;HPM_P2
2022/04/30 00:01:19;;;;;;;1.63;0.75;;;6.30;99.90;;;;;;5010705;28;20041;-75
2022/04/30 00:03:46;;;;;;;2.92;0.70;;;6.30;99.90;;;;;;4998038;28;20234;-76
2022/04/30 00:06:12;;;;;;;2.38;0.70;;;6.30;99.90;;;;;;5010611;28;20436;-76
2022/04/30 00:08:38;;;;;;;2.50;1.08;;;6.30;99.90;;;;;;4994808;28;20117;-76
2022/04/30 00:11:04;;;;;;;2.90;1.10;;;6.30;99.90;;;;;;4995901;28;20026;-75
2022/04/30 00:13:30;;;;;;;3.63;1.10;;;6.20;99.90;;;;;;4999576;28;20026;-75
2022/04/30 00:15:56;;;;;;;2.92;1.05;;;6.20;99.90;;;;;;5006097;28;20056;-75
2022/04/30 00:18:22;;;;;;;1.75;0.65;;;6.10;99.90;;;;;;4994881;28;20058;-76
2022/04/30 00:20:49;;;;;;;3.05;0.60;;;6.10;99.90;;;;;;4996263;28;20065;-75
2022/04/30 00:23:20;;;;;;;2.30;0.70;;;6.00;99.90;;;;;;4994683;28;20157;-75
2022/04/30 00:25:53;;;;;;;2.75;0.90;;;6.00;99.90;;;;;;4995289;28;20037;-76
2022/04/30 00:28:22;;;;;;;1.83;0.95;;;5.90;99.90;;;;;;4994577;28;20049;-75
2022/04/30 00:30:49;;;;;;;2.38;1.02;;;5.90;99.90;;;;;;4994127;28;20144;-76
2022/04/30 00:33:15;;;;;;;4.50;1.02;;;5.90;99.90;;;;;;4995344;28;20065;-76
2022/04/30 00:35:41;;;;;;;1.83;0.90;;;5.80;99.90;;;;;;5010675;28;20465;-76
2022/04/30 00:38:07;;;;;;;3.22;1.27;;;5.80;99.90;;;;;;4994277;28;20030;-76
2022/04/30 00:40:33;;;;;;;2.60;1.20;;;5.80;99.90;;;;;;4994389;28;20497;-76
2022/04/30 00:42:58;;;;;;;3.65;0.90;;;5.70;99.90;;;;;;4994973;28;20120;-76
2022/04/30 00:45:24;;;;;;;3.47;1.13;;;5.70;99.90;;;;;;4994530;28;20117;-75
2022/04/30 00:47:50;;;;;;;2.47;0.95;;;5.60;99.90;;;;;;4994605;28;20034;-76
2022/04/30 00:50:17;;;;;;;2.95;0.70;;;5.60;99.90;;;;;;5009987;28;20054;-76
2022/04/30 00:52:43;;;;;;;4.40;0.88;;;5.60;99.90;;;;;;5009423;28;20026;-75
2022/04/30 00:55:11;;;;;;;2.20;0.70;;;5.50;99.90;;;;;;4993036;28;20052;-76
2022/04/30 00:57:38;;;;;;;5.35;1.13;;;5.50;99.90;;;;;;5000983;28;20038;-76
2022/04/30 01:00:05;;;;;;;4.07;1.33;;;5.40;99.90;;;;;;4993335;28;20026;-76
2022/04/30 01:02:39;;;;;;;3.10;1.10;;;5.40;99.90;;;;;;4994117;28;20029;-76
2022/04/30 01:05:23;;;;;;;2.55;1.15;;;5.40;99.90;;;;;;5004044;28;20032;-75
2022/04/30 01:07:49;;;;;;;5.72;2.15;;;5.40;99.90;;;;;;5008942;28;20042;-76
2022/04/30 01:10:15;;;;;;;4.22;1.77;;;5.40;99.90;;;;;;4995113;28;20049;-76
2022/04/30 01:12:40;;;;;;;3.35;1.70;;;5.30;99.90;;;;;;4994013;28;20089;-76
2022/04/30 01:15:07;;;;;;;3.28;1.20;;;5.20;99.90;;;;;;5004827;28;20248;-76
2022/04/30 01:17:35;;;;;;;3.90;1.95;;;5.20;99.90;;;;;;4983647;28;20045;-76
2022/04/30 01:20:01;;;;;;;3.13;2.10;;;5.20;99.90;;;;;;5008759;28;20115;-76
2022/04/30 01:22:26;;;;;;;6.05;2.53;;;5.20;99.90;;;;;;5008964;28;20425;-76
2022/04/30 01:25:01;;;;;;;4.28;2.13;;;5.20;99.90;;;;;;5004430;28;20091;-76
2022/04/30 01:27:28;;;;;;;4.97;2.17;;;5.20;99.90;;;;;;4993182;28;20091;-76
2022/04/30 01:29:55;;;;;;;7.18;2.50;;;5.20;99.90;;;;;;4993998;28;20053;-76
2022/04/30 01:38:04;;;;;;;4.72;2.45;;;5.20;99.90;;;;;;4991908;28;20050;-75
2022/04/30 01:40:31;;;;;;;5.32;3.50;;;5.20;99.90;;;;;;4993167;28;20052;-76
2022/04/30 01:43:00;;;;;;;5.50;2.72;;;5.30;99.90;;;;;;5008205;28;20087;-76
2022/04/30 01:45:26;;;;;;;4.55;2.38;;;5.30;99.90;;;;;;5009183;28;20121;-75
2022/04/30 01:47:54;;;;;;;4.07;2.53;;;5.30;99.90;;;;;;4993695;28;20034;-76
2022/04/30 01:50:20;;;;;;;7.25;2.10;;;5.30;99.90;;;;;;4991604;28;20410;-76
2022/04/30 01:52:46;;;;;;;4.93;2.17;;;5.40;99.90;;;;;;4998371;28;20087;-75
2022/04/30 01:55:12;;;;;;;7.82;3.40;;;5.30;99.90;;;;;;5004289;28;20046;-76
2022/04/30 01:57:42;;;;;;;4.53;3.13;;;5.40;99.90;;;;;;4992883;28;20034;-75
2022/04/30 02:00:14;;;;;;;5.07;2.45;;;5.50;99.90;;;;;;5007544;28;20558;-75
2022/04/30 02:02:46;;;;;;;3.90;1.77;;;5.50;99.90;;;;;;5007847;28;20044;-76
2022/04/30 02:05:16;;;;;;;7.80;2.65;;;5.50;99.90;;;;;;5007383;28;20030;-76
2022/04/30 02:07:49;;;;;;;7.95;3.47;;;5.50;99.90;;;;;;4993110;28;20501;-76
2022/04/30 02:10:18;;;;;;;5.10;2.30;;;5.50;99.90;;;;;;4993550;28;20609;-75
2022/04/30 02:12:44;;;;;;;6.80;2.75;;;5.50;99.90;;;;;;4992915;28;20390;-76
2022/04/30 02:15:16;;;;;;;5.13;2.40;;;5.50;99.90;;;;;;5007736;28;20052;-76
2022/04/30 02:17:43;;;;;;;6.28;3.35;;;5.50;99.90;;;;;;4992751;28;20417;-75
2022/04/30 02:20:18;;;;;;;6.03;3.35;;;5.40;99.90;;;;;;4992539;28;20030;-76
2022/04/30 02:22:45;;;;;;;7.22;4.28;;;5.40;99.90;;;;;;4993765;28;20034;-75
2022/04/30 02:25:12;;;;;;;4.32;2.38;;;5.30;99.90;;;;;;4991904;28;20162;-76
2022/04/30 02:27:59;;;;;;;4.32;2.17;;;5.30;99.90;;;;;;5008859;28;20379;-76
2022/04/30 02:30:27;;;;;;;5.22;3.20;;;5.20;99.90;;;;;;4992974;28;20046;-75
2022/04/30 02:33:03;;;;;;;5.18;2.85;;;5.20;99.90;;;;;;5003760;28;20076;-76
2022/04/30 02:35:30;;;;;;;7.15;3.85;;;5.10;99.90;;;;;;4993280;28;20033;-76
2022/04/30 02:37:59;;;;;;;5.88;2.67;;;5.10;99.90;;;;;;4993613;28;20097;-76
2022/04/30 02:40:26;;;;;;;5.32;2.08;;;5.00;99.90;;;;;;4992696;28;20034;-75
2022/04/30 02:42:52;;;;;;;5.05;2.08;;;4.90;99.90;;;;;;4990564;28;20048;-76
2022/04/30 02:45:20;;;;;;;6.38;2.42;;;4.90;99.90;;;;;;5007351;28;20029;-76
2022/04/30 02:47:52;;;;;;;4.78;2.25;;;4.90;99.90;;;;;;5007615;28;20477;-75
2022/04/30 02:50:19;;;;;;;7.50;2.78;;;4.90;99.90;;;;;;4991852;28;20368;-75
2022/04/30 02:52:45;;;;;;;4.97;2.65;;;4.80;99.90;;;;;;5003749;28;20038;-76
2022/04/30 02:55:12;;;;;;;4.53;2.00;;;4.80;99.90;;;;;;4992249;28;20069;-76
2022/04/30 03:00:32;;;;;;;5.53;2.40;;;4.70;99.90;;;;;;4992325;28;20033;-76
2022/04/30 03:03:15;;;;;;;3.95;2.03;;;4.70;99.90;;;;;;4990904;28;20030;-76
2022/04/30 03:05:43;;;;;;;5.40;2.50;;;4.60;99.90;;;;;;4992656;28;20026;-76
2022/04/30 03:08:19;;;;;;;4.30;1.63;;;4.60;99.90;;;;;;4996746;28;20038;-75
2022/04/30 03:10:47;;;;;;;3.47;1.98;;;4.60;99.90;;;;;;4990611;28;20045;-76
2022/04/30 03:13:14;;;;;;;5.38;1.50;;;4.60;99.90;;;;;;4993354;28;20382;-76
2022/04/30 03:15:45;;;;;;;6.78;2.58;;;4.60;99.90;;;;;;4992473;28;20467;-76
2022/04/30 03:23:40;;;;;;;8.75;3.08;;;4.50;99.90;;;;;;4991302;28;20037;-76
2022/04/30 03:26:11;;;;;;;5.68;2.85;;;4.50;99.90;;;;;;5007181;28;20026;-76
2022/04/30 03:28:40;;;;;;;6.25;2.40;;;4.50;99.90;;;;;;4975452;28;20244;-76
2022/04/30 03:31:09;;;;;;;7.32;3.55;;;4.40;99.90;;;;;;4997056;28;20038;-76
2022/04/30 03:33:35;;;;;;;6.22;3.13;;;4.50;99.90;;;;;;5006884;28;20060;-76
2022/04/30 03:36:02;;;;;;;6.25;3.30;;;4.40;99.90;;;;;;4990253;28;20045;-76
2022/04/30 03:38:27;;;;;;;7.43;4.80;;;4.40;99.90;;;;;;4992029;28;20429;-76
2022/04/30 03:40:53;;;;;;;7.15;4.03;;;4.40;99.90;;;;;;4987688;28;20042;-76
2022/04/30 03:43:19;;;;;;;7.95;4.20;;;4.40;99.90;;;;;;5002571;28;20027;-76
2022/04/30 03:45:45;;;;;;;6.95;3.53;;;4.40;99.90;;;;;;4992088;28;20067;-76
2022/04/30 03:48:12;;;;;;;6.07;3.85;;;4.30;99.90;;;;;;4991386;28;20030;-76
2022/04/30 03:50:38;;;;;;;7.35;3.72;;;4.30;99.90;;;;;;4992011;28;20546;-76
2022/04/30 03:53:04;;;;;;;9.60;4.63;;;4.40;99.90;;;;;;4991342;28;20117;-76
2022/04/30 03:55:30;;;;;;;9.65;4.50;;;4.30;99.90;;;;;;4989928;28;20142;-76
2022/04/30 03:57:56;;;;;;;11.40;5.18;;;4.30;99.90;;;;;;4989759;28;20035;-76
2022/04/30 04:00:22;;;;;;;10.05;5.80;;;4.30;99.90;;;;;;4989901;28;20072;-77
2022/04/30 04:02:48;;;;;;;9.30;4.47;;;4.30;99.90;;;;;;4991884;28;20120;-75
2022/04/30 04:05:15;;;;;;;9.25;5.20;;;4.30;99.90;;;;;;4996799;28;20035;-76
2022/04/30 04:07:42;;;;;;;7.60;4.15;;;4.30;99.90;;;;;;5006879;28;20040;-75
2022/04/30 04:10:09;;;;;;;8.25;3.63;;;4.30;99.90;;;;;;4991520;28;20524;-76
2022/04/30 04:12:36;;;;;;;11.32;4.70;;;4.30;99.90;;;;;;4992579;28;20152;-76
2022/04/30 04:17:46;;;;;;;6.88;3.17;;;4.30;99.90;;;;;;4991960;28;20034;-76
2022/04/30 04:20:13;;;;;;;5.28;3.33;;;4.30;99.90;;;;;;4994659;28;20030;-76
2022/04/30 04:22:40;;;;;;;4.70;3.13;;;4.30;99.90;;;;;;4995767;28;20057;-76
2022/04/30 04:27:57;;;;;;;7.72;3.78;;;4.30;99.90;;;;;;4996537;28;20132;-76
2022/04/30 04:30:33;;;;;;;7.00;3.47;;;4.30;99.90;;;;;;4994847;28;20046;-75
2022/04/30 04:33:00;;;;;;;7.75;3.90;;;4.30;99.90;;;;;;5009803;28;20038;-76
2022/04/30 04:35:27;;;;;;;6.40;4.45;;;4.30;99.90;;;;;;4993829;28;20034;-75
2022/04/30 04:37:52;;;;;;;6.38;4.00;;;4.30;99.90;;;;;;4995009;28;20039;-76
2022/04/30 04:40:19;;;;;;;6.00;2.40;;;4.30;99.90;;;;;;4995541;28;20038;-76
2022/04/30 04:42:45;;;;;;;5.00;2.42;;;4.30;99.90;;;;;;5009137;28;20468;-75
2022/04/30 04:45:12;;;;;;;3.78;2.22;;;4.40;99.90;;;;;;4993404;28;20453;-76
2022/04/30 04:47:40;;;;;;;4.57;2.30;;;4.40;99.90;;;;;;4995309;28;20080;-76
2022/04/30 04:50:09;;;;;;;4.72;2.70;;;4.40;99.90;;;;;;4976269;28;22123;-76
2022/04/30 04:52:36;;;;;;;5.35;2.97;;;4.40;99.90;;;;;;5010081;28;20215;-76
2022/04/30 04:55:02;;;;;;;4.13;2.03;;;4.40;99.90;;;;;;4991865;28;20981;-76
2022/04/30 04:57:27;;;;;;;7.22;3.35;;;4.40;99.90;;;;;;4994031;28;20042;-76
2022/04/30 04:59:54;;;;;;;5.55;2.60;;;4.50;99.90;;;;;;4997883;28;20038;-76
2022/04/30 05:02:20;;;;;;;4.88;2.72;;;4.50;99.90;;;;;;4995306;28;20034;-75
2022/04/30 05:04:46;;;;;;;5.97;3.20;;;4.60;99.90;;;;;;4992162;28;20065;-76
2022/04/30 05:07:12;;;;;;;5.38;2.20;;;4.60;99.90;;;;;;4998954;28;20850;-77
2022/04/30 05:09:38;;;;;;;7.18;3.42;;;4.60;99.90;;;;;;4993498;28;20077;-76
2022/04/30 05:12:04;;;;;;;6.43;3.55;;;4.70;99.90;;;;;;5007795;28;20393;-76
2022/04/30 05:14:33;;;;;;;6.78;3.20;;;4.80;99.90;;;;;;4993106;28;20111;-75
2022/04/30 05:17:04;;;;;;;5.05;3.17;;;4.90;99.90;;;;;;4993553;28;20103;-76
2022/04/30 05:19:30;;;;;;;5.63;3.75;;;4.90;99.90;;;;;;4989907;28;20031;-75
2022/04/30 05:21:56;;;;;;;5.90;3.60;;;5.00;99.90;;;;;;4992981;28;20064;-75
2022/04/30 05:24:21;;;;;;;6.78;4.03;;;5.10;99.90;;;;;;4994305;28;20451;-76
2022/04/30 05:26:47;;;;;;;9.60;5.32;;;5.20;99.90;;;;;;4990696;28;20113;-76
2022/04/30 05:29:13;;;;;;;7.30;5.57;;;5.20;99.90;;;;;;5008998;28;20034;-75
2022/04/30 05:31:39;;;;;;;8.40;6.03;;;5.30;99.90;;;;;;4993081;28;20092;-76
2022/04/30 05:34:05;;;;;;;10.73;6.50;;;5.40;99.90;;;;;;5003623;28;21049;-76
2022/04/30 05:36:30;;;;;;;8.68;6.13;;;5.40;99.90;;;;;;4994348;28;20408;-75
2022/04/30 05:38:56;;;;;;;7.75;5.00;;;5.60;99.90;;;;;;4997244;28;20389;-76
2022/04/30 05:41:21;;;;;;;7.90;4.78;;;5.60;99.90;;;;;;4992132;28;20040;-75
2022/04/30 05:43:47;;;;;;;7.15;4.68;;;5.70;99.90;;;;;;4993691;28;20389;-76
2022/04/30 05:46:13;;;;;;;7.82;4.55;;;5.90;99.90;;;;;;5008977;28;20042;-76
2022/04/30 05:48:39;;;;;;;10.50;5.88;;;5.90;99.90;;;;;;4997777;28;20443;-75
2022/04/30 05:51:05;;;;;;;9.13;4.72;;;6.00;99.90;;;;;;4993262;28;20646;-76
2022/04/30 05:53:31;;;;;;;10.88;4.70;;;6.20;99.90;;;;;;4993058;28;20097;-76
2022/04/30 05:55:57;;;;;;;9.82;5.75;;;6.20;99.90;;;;;;5006396;28;20046;-76
2022/04/30 05:58:22;;;;;;;10.25;5.07;;;6.30;99.90;;;;;;4993222;28;20761;-76
2022/04/30 06:00:48;;;;;;;9.20;5.28;;;6.40;99.90;;;;;;4993578;28;20764;-76
2022/04/30 06:03:14;;;;;;;8.07;5.82;;;6.40;99.90;;;;;;4997641;28;20041;-76
2022/04/30 06:05:39;;;;;;;9.40;6.32;;;6.50;99.90;;;;;;4993108;28;20022;-76
2022/04/30 06:08:06;;;;;;;8.75;5.65;;;6.50;99.90;;;;;;4993232;28;20067;-75
2022/04/30 06:10:31;;;;;;;10.38;5.50;;;6.70;99.90;;;;;;5007245;28;20073;-75
2022/04/30 06:12:57;;;;;;;10.23;5.40;;;6.70;99.90;;;;;;4991366;28;20429;-76
2022/04/30 06:15:23;;;;;;;7.95;4.65;;;7.00;99.90;;;;;;4992786;28;20030;-76
2022/04/30 06:17:49;;;;;;;9.80;5.90;;;7.00;99.90;;;;;;4992656;28;20066;-76
2022/04/30 06:20:15;;;;;;;9.35;5.20;;;7.20;99.90;;;;;;5006879;28;20083;-76
2022/04/30 06:22:41;;;;;;;9.60;5.38;;;7.30;99.90;;;;;;4991397;28;20044;-76
2022/04/30 06:25:07;;;;;;;10.48;4.78;;;7.40;99.90;;;;;;4973757;28;20022;-75
2022/04/30 06:27:35;;;;;;;8.32;4.35;;;7.60;99.90;;;;;;4993096;28;20104;-76
2022/04/30 06:30:05;;;;;;;8.48;5.00;;;7.80;99.90;;;;;;5007261;28;20048;-76
2022/04/30 06:32:31;;;;;;;9.52;4.88;;;8.00;99.90;;;;;;4991033;28;20061;-76
2022/04/30 06:34:56;;;;;;;9.90;5.53;;;8.10;99.90;;;;;;4991868;28;20541;-75
2022/04/30 06:37:23;;;;;;;10.27;5.50;;;8.20;99.90;;;;;;4974998;28;20037;-76
2022/04/30 06:39:49;;;;;;;5.53;4.18;;;8.30;99.90;;;;;;4989654;28;20057;-76
2022/04/30 06:42:14;;;;;;;8.15;4.30;;;8.30;99.90;;;;;;4989163;28;20022;-76
2022/04/30 06:44:40;;;;;;;7.57;4.10;;;8.40;99.90;;;;;;4993140;28;20034;-75
2022/04/30 06:47:06;;;;;;;6.95;4.07;;;8.60;99.90;;;;;;5005750;28;20036;-76
2022/04/30 06:49:32;;;;;;;5.80;4.38;;;8.70;99.90;;;;;;4996930;28;20049;-75
2022/04/30 06:51:57;;;;;;;4.75;2.88;;;8.90;99.90;;;;;;5003097;28;20026;-75
2022/04/30 06:57:17;;;;;;;6.15;2.65;;;9.50;99.90;;;;;;4990964;28;20387;-76
2022/04/30 06:59:44;;;;;;;4.65;3.08;;;9.40;99.90;;;;;;5002560;28;20037;-76
2022/04/30 07:02:18;;;;;;;3.17;1.58;;;9.60;99.90;;;;;;5005929;28;20099;-75
2022/04/30 07:04:46;;;;;;;4.25;1.50;;;10.00;99.90;;;;;;4997511;28;20045;-76
2022/04/30 07:07:12;;;;;;;3.47;1.65;;;10.10;99.90;;;;;;4980310;28;20041;-75
2022/04/30 07:09:38;;;;;;;3.58;1.10;;;10.30;99.90;;;;;;4990168;28;20057;-76
2022/04/30 07:12:06;;;;;;;5.70;2.88;;;10.60;99.90;;;;;;4989688;28;20026;-76
2022/04/30 07:14:36;;;;;;;6.50;2.80;;;10.10;99.90;;;;;;4991541;28;20420;-76
2022/04/30 07:17:13;;;;;;;6.07;1.95;;;10.00;99.90;;;;;;4992186;28;20569;-76
2022/04/30 07:19:39;;;;;;;3.70;1.05;;;10.20;99.90;;;;;;4991650;28;20031;-76
2022/04/30 07:22:07;;;;;;;3.20;1.50;;;10.60;99.90;;;;;;4984828;28;20406;-76
2022/04/30 07:24:34;;;;;;;3.03;1.65;;;10.70;99.90;;;;;;4991698;28;20063;-76
2022/04/30 07:27:00;;;;;;;6.32;2.13;;;10.70;99.90;;;;;;4988797;28;20502;-76
2022/04/30 07:29:26;;;;;;;2.72;1.23;;;10.90;99.90;;;;;;4990000;28;20056;-76
2022/04/30 07:31:53;;;;;;;2.90;1.38;;;11.10;99.90;;;;;;4988861;28;20585;-77
2022/04/30 07:34:18;;;;;;;4.28;1.77;;;11.30;99.90;;;;;;4994690;28;20042;-76
2022/04/30 07:36:44;;;;;;;4.75;2.28;;;11.40;99.90;;;;;;5004241;28;20387;-75
2022/04/30 07:39:10;;;;;;;3.83;1.70;;;11.00;99.90;;;;;;4989813;28;20498;-76
2022/04/30 07:41:35;;;;;;;3.15;1.50;;;11.20;99.90;;;;;;4989907;28;20475;-76
2022/04/30 07:44:01;;;;;;;2.58;1.08;;;11.60;99.90;;;;;;4991343;28;20079;-76
2022/04/30 07:46:27;;;;;;;3.75;1.30;;;12.10;99.90;;;;;;4990570;28;20029;-78
2022/04/30 07:48:53;;;;;;;1.90;0.98;;;12.00;99.90;;;;;;5005252;28;20029;-76
2022/04/30 07:51:33;;;;;;;3.45;1.40;;;12.00;99.90;;;;;;5006485;28;20045;-76
2022/04/30 07:54:02;;;;;;;2.97;0.98;;;11.40;99.90;;;;;;4993749;28;20081;-76
2022/04/30 07:56:27;;;;;;;3.08;1.10;;;12.00;99.90;;;;;;5007649;28;20072;-76
2022/04/30 07:58:53;;;;;;;5.45;1.40;;;11.60;99.90;;;;;;5012825;28;20034;-76
2022/04/30 08:01:19;;;;;;;3.03;1.02;;;11.80;99.90;;;;;;5029449;28;20068;-76
2022/04/30 08:03:44;;;;;;;4.13;0.80;;;11.90;99.90;;;;;;5024956;28;20429;-76
2022/04/30 08:06:10;;;;;;;3.58;1.00;;;12.00;99.90;;;;;;5013765;28;21828;-76
2022/04/30 08:08:36;;;;;;;3.20;1.13;;;11.80;99.90;;;;;;5028692;28;20053;-76
2022/04/30 08:11:02;;;;;;;3.15;1.30;;;11.60;99.90;;;;;;5017889;28;20045;-76
2022/04/30 08:13:27;;;;;;;3.67;1.08;;;11.30;99.90;;;;;;5013604;28;20373;-76
2022/04/30 08:15:53;;;;;;;2.13;0.75;;;11.70;99.90;;;;;;5012770;28;20021;-76
2022/04/30 08:18:19;;;;;;;3.83;1.13;;;11.80;99.90;;;;;;5014328;28;20429;-77
2022/04/30 08:20:46;;;;;;;3.50;1.00;;;11.70;99.90;;;;;;5013662;28;20508;-77
2022/04/30 08:23:12;;;;;;;2.53;0.50;;;12.20;99.90;;;;;;5013603;28;20774;-77
2022/04/30 08:25:38;;;;;;;5.13;1.00;;;12.10;99.90;;;;;;5013474;28;20037;-77
2022/04/30 08:28:05;;;;;;;3.33;0.70;;;11.90;99.90;;;;;;5024132;28;20167;-75
2022/04/30 08:30:31;;;;;;;1.92;0.63;;;11.70;99.90;;;;;;5014833;28;20084;-77
2022/04/30 08:32:57;;;;;;;2.95;1.10;;;12.30;99.90;;;;;;5013974;28;20025;-77
2022/04/30 08:35:23;;;;;;;3.05;1.10;;;12.40;99.90;;;;;;5014051;28;20115;-78
2022/04/30 08:37:49;;;;;;;4.32;1.17;;;12.50;99.90;;;;;;5012561;28;20034;-77
2022/04/30 08:40:16;;;;;;;4.93;1.48;;;12.10;99.90;;;;;;5014044;28;20034;-77
2022/04/30 08:42:41;;;;;;;5.05;1.23;;;12.00;99.90;;;;;;5010939;28;20033;-77
2022/04/30 08:45:08;;;;;;;1.85;0.60;;;12.60;99.90;;;;;;5013657;28;20021;-77
2022/04/30 08:47:43;;;;;;;1.40;0.60;;;13.50;99.90;;;;;;5012717;28;20125;-77
2022/04/30 08:50:14;;;;;;;3.03;0.50;;;14.10;99.90;;;;;;5013236;28;20037;-77
2022/04/30 08:52:40;;;;;;;1.38;0.50;;;13.80;99.90;;;;;;5013803;28;20040;-75
2022/04/30 08:55:07;;;;;;;2.03;0.50;;;12.80;99.90;;;;;;5012471;28;20050;-75
2022/04/30 08:57:34;;;;;;;1.00;0.40;;;13.00;99.90;;;;;;5013083;28;20208;-75
2022/04/30 08:59:59;;;;;;;1.27;0.30;;;13.60;99.90;;;;;;5011987;28;20038;-75
2022/04/30 09:02:26;;;;;;;0.80;0.30;;;14.50;99.90;;;;;;5024151;28;20416;-75
2022/04/30 09:04:51;;;;;;;1.55;0.30;;;14.70;99.90;;;;;;5011223;28;20646;-75
2022/04/30 09:07:20;;;;;;;1.65;0.40;;;14.20;99.90;;;;;;5011958;28;20038;-76
2022/04/30 09:09:54;;;;;;;1.08;0.40;;;13.80;99.90;;;;;;5012209;28;20049;-76
2022/04/30 09:12:20;;;;;;;1.67;0.50;;;13.20;99.90;;;;;;5012448;28;20536;-76
2022/04/30 09:14:47;;;;;;;1.48;0.40;;;13.00;99.90;;;;;;5017222;28;20045;-76
2022/04/30 09:17:15;;;;;;;1.50;0.50;;;12.70;99.90;;;;;;5012218;28;20092;-78
2022/04/30 09:19:51;;;;;;;2.25;0.50;;;13.00;99.90;;;;;;5012286;28;20590;-78
2022/04/30 09:22:33;;;;;;;2.05;0.60;;;13.20;99.90;;;;;;5012945;28;20460;-77
2022/04/30 09:25:01;;;;;;;2.10;0.52;;;13.10;99.90;;;;;;5011524;28;20052;-77
2022/04/30 09:27:27;;;;;;;1.60;0.50;;;13.50;99.90;;;;;;5012731;28;20062;-77
2022/04/30 09:29:53;;;;;;;1.10;0.38;;;13.60;99.90;;;;;;5012030;28;20029;-76
2022/04/30 09:32:23;;;;;;;2.47;0.60;;;13.50;99.90;;;;;;4996586;28;20041;-75
2022/04/30 09:37:46;;;;;;;2.53;0.70;;;12.30;99.90;;;;;;5012643;28;20037;-76
2022/04/30 09:40:14;;;;;;;2.20;0.80;;;12.10;99.90;;;;;;5012335;28;20091;-76
2022/04/30 09:42:48;;;;;;;4.28;0.77;;;12.00;99.90;;;;;;5013124;28;20039;-76
2022/04/30 09:45:27;;;;;;;3.00;0.70;;;12.20;99.90;;;;;;5026637;28;20385;-76
2022/04/30 09:47:54;;;;;;;1.90;0.80;;;13.70;99.90;;;;;;5015975;28;20160;-78
2022/04/30 09:55:53;;;;;;;2.35;0.73;;;13.70;99.90;;;;;;5012513;28;20052;-77
2022/04/30 09:58:24;;;;;;;1.55;0.60;;;13.40;99.90;;;;;;5016416;28;20092;-78
2022/04/30 10:00:55;;;;;;;2.95;0.70;;;13.10;99.90;;;;;;5011487;28;20046;-79
2022/04/30 10:03:31;;;;;;;1.98;0.60;;;12.90;99.90;;;;;;5024893;28;20030;-79
2022/04/30 10:06:02;;;;;;;2.38;0.70;;;12.80;99.90;;;;;;5026255;28;20097;-78
2022/04/30 10:08:33;;;;;;;2.63;0.98;;;12.80;99.90;;;;;;5010280;28;20030;-78
2022/04/30 10:11:17;;;;;;;2.13;0.60;;;12.60;99.90;;;;;;5012238;28;20072;-78
2022/04/30 10:14:09;;;;;;;2.42;1.02;;;12.90;99.90;;;;;;5011767;28;20053;-78
2022/04/30 10:16:35;;;;;;;2.58;0.80;;;12.40;99.90;;;;;;5008522;28;20037;-78
2022/04/30 10:19:16;;;;;;;3.30;0.73;;;12.60;99.90;;;;;;5010870;28;20060;-79
2022/04/30 10:21:42;;;;;;;2.20;0.90;;;12.70;99.90;;;;;;5027043;28;20037;-79
2022/04/30 10:24:14;;;;;;;1.73;0.90;;;12.40;99.90;;;;;;5026363;28;20881;-79
2022/04/30 10:26:58;;;;;;;1.73;0.90;;;12.30;99.90;;;;;;5010758;28;20052;-79
2022/04/30 10:29:24;;;;;;;2.83;1.40;;;12.50;99.90;;;;;;5010831;28;20046;-79
2022/04/30 10:31:50;;;;;;;4.63;1.52;;;12.10;99.90;;;;;;5014904;28;20040;-78
2022/04/30 10:34:15;;;;;;;4.70;1.40;;;12.30;99.90;;;;;;5016960;28;20072;-79
2022/04/30 10:36:41;;;;;;;2.67;1.50;;;12.10;99.90;;;;;;5010265;28;20509;-78
2022/04/30 10:39:17;;;;;;;4.55;1.25;;;12.10;99.90;;;;;;5009348;28;20505;-76
2022/04/30 10:41:45;;;;;;;3.72;1.58;;;12.10;99.90;;;;;;5005973;28;20038;-78
2022/04/30 10:44:13;;;;;;;3.97;1.30;;;11.90;99.90;;;;;;5010113;28;20805;-79
2022/04/30 10:46:42;;;;;;;1.83;0.80;;;11.60;99.90;;;;;;5011115;28;20026;-78
2022/04/30 10:49:08;;;;;;;2.45;0.70;;;11.90;99.90;;;;;;5010158;28;20084;-79
2022/04/30 10:51:41;;;;;;;2.83;1.00;;;12.10;99.90;;;;;;5011043;28;20394;-78
2022/04/30 10:54:21;;;;;;;2.80;0.90;;;11.90;99.90;;;;;;5010493;28;20036;-76
2022/04/30 10:56:56;;;;;;;2.63;1.20;;;11.80;99.90;;;;;;5010506;28;20057;-78
2022/04/30 10:59:22;;;;;;;5.05;2.40;;;11.60;99.90;;;;;;5007599;28;20060;-79
2022/04/30 11:01:49;;;;;;;3.60;1.65;;;11.60;99.90;;;;;;5009849;28;20079;-79
2022/04/30 11:04:21;;;;;;;2.85;0.93;;;11.80;99.90;;;;;;5025447;28;20037;-78
2022/04/30 11:06:51;;;;;;;5.85;2.00;;;11.90;99.90;;;;;;5009776;28;20112;-79
2022/04/30 11:09:17;;;;;;;4.25;2.10;;;11.60;99.90;;;;;;5010725;28;20485;-79
2022/04/30 11:11:49;;;;;;;3.95;1.92;;;11.70;99.90;;;;;;5021727;28;20032;-78
2022/04/30 11:14:16;;;;;;;5.18;2.47;;;11.70;99.90;;;;;;5028005;28;20030;-78
2022/04/30 11:16:49;;;;;;;5.68;2.83;;;11.10;99.90;;;;;;5017592;28;20044;-79
2022/04/30 11:19:17;;;;;;;5.43;2.60;;;11.00;99.90;;;;;;5021525;28;20029;-79
2022/04/30 11:21:47;;;;;;;4.40;2.90;;;11.10;99.90;;;;;;5015682;28;20039;-78
2022/04/30 11:24:24;;;;;;;4.13;2.50;;;11.10;99.90;;;;;;5012080;28;20104;-78
2022/04/30 11:26:59;;;;;;;7.60;2.47;;;11.00;99.90;;;;;;5011946;28;20034;-78
2022/04/30 11:29:25;;;;;;;4.82;2.53;;;11.10;99.90;;;;;;5028517;28;20046;-79
2022/04/30 11:31:52;;;;;;;9.13;2.72;;;11.00;99.90;;;;;;5018397;28;20034;-78
2022/04/30 11:34:19;;;;;;;4.00;2.67;;;11.00;99.90;;;;;;5012978;28;20052;-78
2022/04/30 11:36:47;;;;;;;4.72;2.80;;;11.00;99.90;;;;;;5020850;28;20087;-78
2022/04/30 11:39:14;;;;;;;5.40;2.35;;;10.90;99.90;;;;;;5012831;28;20041;-79
2022/04/30 11:41:41;;;;;;;5.05;2.50;;;10.90;99.90;;;;;;5027902;28;20207;-79
2022/04/30 11:44:09;;;;;;;5.55;2.20;;;10.90;99.90;;;;;;5029110;28;20033;-78
2022/04/30 11:46:39;;;;;;;3.60;2.25;;;10.90;99.90;;;;;;5022561;28;20057;-78
2022/04/30 11:49:12;;;;;;;3.45;1.83;;;11.00;99.90;;;;;;5020234;28;20033;-78
2022/04/30 11:51:40;;;;;;;4.93;2.33;;;11.10;99.90;;;;;;5034550;28;20101;-78
2022/04/30 11:54:10;;;;;;;4.30;1.85;;;11.20;99.90;;;;;;5033926;28;20026;-78
2022/04/30 11:56:38;;;;;;;4.18;2.10;;;11.20;99.90;;;;;;5020440;28;20495;-78
2022/04/30 11:59:04;;;;;;;4.25;2.22;;;11.10;99.90;;;;;;5033603;28;20037;-78
2022/04/30 12:01:32;;;;;;;4.00;2.30;;;11.10;99.90;;;;;;5034159;28;20026;-78
2022/04/30 12:04:01;;;;;;;5.80;2.58;;;11.00;99.90;;;;;;5019275;28;20041;-78
2022/04/30 12:06:27;;;;;;;3.75;2.33;;;11.00;99.90;;;;;;5019279;28;20445;-77
2022/04/30 12:08:53;;;;;;;3.67;2.45;;;11.00;99.90;;;;;;5019529;28;20409;-82
2022/04/30 12:11:19;;;;;;;3.75;2.17;;;11.00;99.90;;;;;;5036308;28;20583;-81
2022/04/30 12:14:08;;;;;;;3.72;2.33;;;11.30;99.90;;;;;;5020374;28;20375;-78
2022/04/30 12:16:36;;;;;;;4.90;1.95;;;11.20;99.90;;;;;;5021609;28;20032;-77
2022/04/30 12:24:43;;;;;;;5.13;1.83;;;11.20;99.90;;;;;;5034734;28;20072;-77
2022/04/30 12:27:17;;;;;;;4.45;2.30;;;11.40;99.90;;;;;;5032737;28;20044;-78
2022/04/30 12:29:44;;;;;;;5.05;2.40;;;11.40;99.90;;;;;;5018481;28;20034;-77
2022/04/30 12:32:09;;;;;;;3.90;2.00;;;11.50;99.90;;;;;;5019743;28;20075;-78
2022/04/30 12:34:40;;;;;;;5.05;1.65;;;11.60;99.90;;;;;;5018060;28;20038;-76
2022/04/30 12:37:06;;;;;;;4.82;1.90;;;11.50;99.90;;;;;;5034335;28;20042;-78
2022/04/30 12:39:32;;;;;;;3.70;1.65;;;11.50;99.90;;;;;;5017700;28;20041;-77
2022/04/30 12:41:58;;;;;;;3.38;2.00;;;11.60;99.90;;;;;;5019806;28;20340;-78
2022/04/30 12:44:24;;;;;;;5.22;1.58;;;11.50;99.90;;;;;;5020803;28;20061;-78
2022/04/30 12:46:50;;;;;;;5.40;1.75;;;11.70;99.90;;;;;;5028159;28;20056;-78
2022/04/30 12:49:19;;;;;;;2.60;1.35;;;11.70;99.90;;;;;;5034534;28;20444;-77
2022/04/30 12:51:48;;;;;;;4.50;1.80;;;11.70;99.90;;;;;;5018939;28;20037;-78
2022/04/30 12:54:16;;;;;;;2.70;1.25;;;11.60;99.90;;;;;;5023872;28;20037;-77
2022/04/30 12:56:45;;;;;;;3.22;1.63;;;11.90;99.90;;;;;;5017207;28;20112;-78
2022/04/30 12:59:12;;;;;;;4.85;1.98;;;11.70;99.90;;;;;;5020385;28;20037;-78
2022/04/30 13:01:39;;;;;;;4.30;1.30;;;11.70;99.90;;;;;;5033506;28;20030;-77
2022/04/30 13:04:05;;;;;;;2.90;1.10;;;11.90;99.90;;;;;;5020607;28;20018;-77
2022/04/30 13:06:31;;;;;;;4.15;1.10;;;11.90;99.90;;;;;;5023885;28;20422;-78
2022/04/30 13:14:28;;;;;;;3.13;1.17;;;12.30;99.90;;;;;;5000043;28;20052;-78
2022/04/30 13:16:53;;;;;;;2.80;1.05;;;12.50;99.90;;;;;;5029638;28;20422;-77
2022/04/30 13:19:19;;;;;;;1.90;1.00;;;12.50;99.90;;;;;;5016714;28;20034;-77
2022/04/30 13:21:48;;;;;;;2.97;1.17;;;12.40;99.90;;;;;;5015112;28;20026;-77
2022/04/30 13:24:14;;;;;;;1.30;0.52;;;12.60;99.90;;;;;;5019943;28;20124;-78
2022/04/30 13:26:41;;;;;;;2.90;1.10;;;12.90;99.90;;;;;;5019129;28;20486;-76
2022/04/30 13:29:10;;;;;;;2.50;0.80;;;12.80;99.90;;;;;;5018528;28;20545;-76
2022/04/30 13:31:39;;;;;;;1.45;0.70;;;12.70;99.90;;;;;;5011419;28;20389;-77
2022/04/30 13:34:05;;;;;;;2.47;0.60;;;13.10;99.90;;;;;;5025568;28;20120;-78
2022/04/30 13:36:34;;;;;;;1.63;0.50;;;13.30;99.90;;;;;;5028820;28;20041;-78
2022/04/30 13:39:02;;;;;;;1.83;0.60;;;13.70;99.90;;;;;;5014809;28;21804;-75